TimeCDT,TemperatureF,Dew PointF,Humidity,Sea Level PressureIn,VisibilityMPH,Wind Direction,Wind SpeedMPH,Gust SpeedMPH,PrecipitationIn,Events,Conditions,WindDirDegrees,DateUTC
12:53 AM,45.0,41.0,86,30.01,9.0,Calm,Calm,-,N/A,,Clear,0,2013-04-28 05:53:00
1:53 AM,42.1,39.0,89,29.99,4.0,Calm,Calm,-,N/A,,Clear,0,2013-04-28 06:53:00
2:33 AM,39.2,39.2,100,29.97,1.8,Calm,Calm,-,N/A,,Clear,0,2013-04-28 07:33:00
2:36 AM,39.2,37.4,93,29.97,0.8,Calm,Calm,-,N/A,,Mist,0,2013-04-28 07:36:00
2:47 AM,39.2,37.4,93,29.97,1.5,Calm,Calm,-,N/A,,Partly Cloudy,0,2013-04-28 07:47:00
2:49 AM,39.2,37.4,93,29.97,3.0,Calm,Calm,-,N/A,,Partly Cloudy,0,2013-04-28 07:49:00
2:53 AM,39.0,37.0,93,29.98,3.0,Calm,Calm,-,N/A,,Partly Cloudy,0,2013-04-28 07:53:00
3:08 AM,39.2,37.4,93,29.96,2.0,Calm,Calm,-,N/A,,Clear,0,2013-04-28 08:08:00
3:14 AM,39.2,37.4,93,29.96,1.0,Calm,Calm,-,N/A,,Clear,0,2013-04-28 08:14:00
3:21 AM,39.2,37.4,93,29.96,0.8,Calm,Calm,-,N/A,,Clear,0,2013-04-28 08:21:00
3:26 AM,39.2,37.4,93,29.95,1.5,Calm,Calm,-,N/A,,Clear,0,2013-04-28 08:26:00
3:35 AM,37.4,37.4,100,29.96,3.0,Calm,Calm,-,N/A,,Clear,0,2013-04-28 08:35:00
3:42 AM,37.4,37.4,100,29.96,1.8,Calm,Calm,-,N/A,,Clear,0,2013-04-28 08:42:00
3:46 AM,37.4,37.4,100,29.96,0.8,Calm,Calm,-,N/A,,Clear,0,2013-04-28 08:46:00
3:53 AM,39.9,37.9,93,29.96,1.0,Calm,Calm,-,N/A,,Clear,0,2013-04-28 08:53:00
4:06 AM,39.2,37.4,93,29.95,0.5,Calm,Calm,-,N/A,Fog,Fog,0,2013-04-28 09:06:00
4:19 AM,37.4,37.4,100,29.95,0.2,Calm,Calm,-,N/A,Fog,Fog,0,2013-04-28 09:19:00
4:32 AM,39.2,37.4,93,29.95,1.0,Calm,Calm,-,N/A,,Clear,0,2013-04-28 09:32:00
4:39 AM,39.2,37.4,93,29.95,2.0,Calm,Calm,-,N/A,,Clear,0,2013-04-28 09:39:00
4:45 AM,37.4,37.4,100,29.95,1.0,Calm,Calm,-,N/A,,Clear,0,2013-04-28 09:45:00
4:53 AM,39.0,37.0,93,29.96,0.2,Calm,Calm,-,N/A,Fog,Fog,0,2013-04-28 09:53:00
5:25 AM,37.4,35.6,93,29.95,0.8,Calm,Calm,-,N/A,,Mist,0,2013-04-28 10:25:00
5:28 AM,37.4,35.6,93,29.95,1.5,Calm,Calm,-,N/A,,Partly Cloudy,0,2013-04-28 10:28:00
5:34 AM,37.4,35.6,93,29.95,0.8,Calm,Calm,-,N/A,,Mist,0,2013-04-28 10:34:00
5:53 AM,37.0,36.0,96,29.96,0.5,Calm,Calm,-,N/A,Fog,Fog,0,2013-04-28 10:53:00
6:39 AM,39.2,37.4,93,29.94,0.2,Calm,Calm,-,N/A,Fog,Fog,0,2013-04-28 11:39:00
6:53 AM,39.9,39.0,97,29.96,0.2,Calm,Calm,-,N/A,Fog,Fog,0,2013-04-28 11:53:00
7:00 AM,41.0,39.2,93,29.95,0.2,Calm,Calm,-,N/A,Fog,Fog,0,2013-04-28 12:00:00
7:25 AM,42.8,42.8,100,29.96,1.2,Calm,Calm,-,N/A,,Mostly Cloudy,0,2013-04-28 12:25:00
7:28 AM,42.8,42.8,100,29.96,2.0,Calm,Calm,-,N/A,,Scattered Clouds,0,2013-04-28 12:28:00
7:44 AM,44.6,42.8,93,29.96,4.0,Calm,Calm,-,N/A,,Partly Cloudy,0,2013-04-28 12:44:00
8:53 AM,54.0,46.0,75,29.96,7.0,Calm,Calm,-,N/A,,Clear,0,2013-04-28 13:53:00
9:53 AM,60.1,44.1,55,29.93,10.0,Calm,Calm,-,N/A,,Clear,0,2013-04-28 14:53:00
10:53 AM,64.9,43.0,45,29.91,10.0,West,3.5,-,N/A,,Unknown,260,2013-04-28 15:53:00
11:53 AM,69.1,41.0,36,29.91,10.0,West,5.8,-,N/A,,Clear,280,2013-04-28 16:53:00
12:53 PM,71.1,42.1,35,29.88,10.0,Calm,Calm,-,N/A,,Clear,0,2013-04-28 17:53:00
1:53 PM,73.9,43.0,33,29.85,10.0,Variable,5.8,-,N/A,,Clear,0,2013-04-28 18:53:00
2:53 PM,73.9,42.1,32,29.84,10.0,West,9.2,-,N/A,,Clear,270,2013-04-28 19:53:00
3:53 PM,75.0,42.1,31,29.82,10.0,West,8.1,-,N/A,,Clear,280,2013-04-28 20:53:00
4:53 PM,75.0,39.9,28,29.80,10.0,WSW,10.4,-,N/A,,Clear,240,2013-04-28 21:53:00
5:53 PM,73.9,39.9,29,29.80,10.0,SW,6.9,-,N/A,,Clear,230,2013-04-28 22:53:00
6:53 PM,73.0,41.0,31,29.78,10.0,South,5.8,-,N/A,,Clear,180,2013-04-28 23:53:00
7:53 PM,69.1,42.1,38,29.78,10.0,South,3.5,-,N/A,,Clear,180,2013-04-29 00:53:00
8:53 PM,60.1,44.1,55,29.79,10.0,Calm,Calm,-,N/A,,Clear,0,2013-04-29 01:53:00
9:53 PM,57.9,46.0,65,29.81,10.0,Calm,Calm,-,N/A,,Clear,0,2013-04-29 02:53:00
10:53 PM,53.1,45.0,74,29.81,10.0,Calm,Calm,-,N/A,,Clear,0,2013-04-29 03:53:00
11:53 PM,52.0,45.0,77,29.82,10.0,Calm,Calm,-,N/A,,Clear,0,2013-04-29 04:53:00